createdAt,value
2019-06-26T00:00:28.631Z,9.73
2019-06-26T00:02:57.867Z,8.95
2019-06-26T00:05:26.625Z,10.35
2019-06-26T00:07:55.700Z,10.38
2019-06-26T00:10:26.836Z,10.10
2019-06-26T00:12:55.529Z,10.70
2019-06-26T00:15:24.518Z,10.10
2019-06-26T00:17:53.505Z,9.90
2019-06-26T00:20:23.420Z,9.53
2019-06-26T00:22:52.418Z,11.18
2019-06-26T00:25:21.412Z,9.63
2019-06-26T00:27:50.079Z,9.85
2019-06-26T00:30:20.015Z,9.85
2019-06-26T00:32:48.988Z,9.30
2019-06-26T00:35:17.755Z,9.85
2019-06-26T00:37:46.972Z,9.33
2019-06-26T00:40:15.847Z,10.38
2019-06-26T00:42:44.523Z,10.53
2019-06-26T00:45:14.248Z,9.93
2019-06-26T00:47:42.976Z,10.08
2019-06-26T00:50:12.417Z,9.53
2019-06-26T00:52:41.224Z,10.10
2019-06-26T00:55:10.238Z,12.53
2019-06-26T00:57:39.341Z,10.45
2019-06-26T01:00:10.387Z,10.65
2019-06-26T01:02:39.581Z,10.08
2019-06-26T01:05:10.094Z,10.40
2019-06-26T01:07:39.374Z,10.47
2019-06-26T01:10:09.417Z,10.00
2019-06-26T01:12:38.420Z,10.63
2019-06-26T01:15:08.844Z,10.25
2019-06-26T01:17:37.537Z,10.35
2019-06-26T01:20:07.338Z,10.15
2019-06-26T01:22:36.029Z,10.48
2019-06-26T01:25:06.436Z,10.80
2019-06-26T01:27:35.779Z,10.95
2019-06-26T01:30:05.076Z,10.60
2019-06-26T01:32:34.039Z,10.65
2019-06-26T01:35:03.265Z,10.90
2019-06-26T01:37:32.236Z,11.38
2019-06-26T01:40:00.903Z,10.38
2019-06-26T01:42:29.585Z,10.40
2019-06-26T01:44:58.908Z,11.28
2019-06-26T01:47:27.902Z,10.15
2019-06-26T01:49:57.195Z,10.82
2019-06-26T01:52:25.871Z,14.73
2019-06-26T01:54:54.878Z,10.80
2019-06-26T01:57:24.178Z,10.80
2019-06-26T01:59:52.960Z,11.00
2019-06-26T02:02:21.648Z,10.82
2019-06-26T02:04:50.420Z,11.97
2019-06-26T02:07:19.123Z,14.70
2019-06-26T02:09:48.118Z,11.30
2019-06-26T02:12:17.052Z,12.78
2019-06-26T02:14:45.723Z,12.82
2019-06-26T02:17:14.437Z,10.65
2019-06-26T02:19:43.091Z,13.25
2019-06-26T02:22:12.159Z,12.45
2019-06-26T02:24:40.975Z,11.33
2019-06-26T02:27:09.678Z,11.22
2019-06-26T02:29:41.018Z,11.08
2019-06-26T02:32:09.737Z,11.75
2019-06-26T02:34:39.098Z,10.88
2019-06-26T02:37:07.791Z,10.80
2019-06-26T02:39:36.746Z,12.70
2019-06-26T02:42:05.836Z,11.95
2019-06-26T02:44:52.053Z,11.73
2019-06-26T02:47:18.704Z,12.75
2019-06-26T02:49:36.589Z,12.07
2019-06-26T02:52:05.346Z,13.55
2019-06-26T02:54:34.281Z,14.38
2019-06-26T02:57:05.574Z,12.10
2019-06-26T02:59:34.962Z,13.70
2019-06-26T03:02:03.993Z,15.83
2019-06-26T03:04:32.670Z,12.07
2019-06-26T03:07:02.937Z,12.05
2019-06-26T03:09:32.233Z,11.90
2019-06-26T03:12:01.234Z,14.28
2019-06-26T03:14:30.527Z,12.90
2019-06-26T03:16:59.315Z,13.98
2019-06-26T03:19:30.655Z,13.72
2019-06-26T03:21:59.346Z,12.73
2019-06-26T03:24:29.363Z,12.75
2019-06-26T03:26:58.049Z,13.45
2019-06-26T03:29:26.811Z,12.47
2019-06-26T03:31:55.523Z,12.40
2019-06-26T03:34:24.538Z,13.25
2019-06-26T03:36:53.386Z,14.15
2019-06-26T03:39:22.070Z,13.50
2019-06-26T03:41:50.764Z,13.00
2019-06-26T03:44:19.502Z,13.60
2019-06-26T03:46:48.183Z,13.45
2019-06-26T03:49:17.544Z,13.22
2019-06-26T03:51:46.222Z,13.93
2019-06-26T03:54:14.896Z,12.75
2019-06-26T03:56:43.896Z,13.80
2019-06-26T03:59:12.581Z,13.03
2019-06-26T04:01:42.437Z,14.83
2019-06-26T04:04:11.500Z,14.53
2019-06-26T04:06:40.426Z,14.80
2019-06-26T04:09:09.599Z,14.23
2019-06-26T04:11:38.262Z,13.05
2019-06-26T04:14:06.952Z,14.03
2019-06-26T04:16:35.692Z,14.05
2019-06-26T04:19:04.464Z,13.28
2019-06-26T04:21:33.153Z,15.25
2019-06-26T04:24:02.015Z,14.00
2019-06-26T04:26:32.141Z,13.43
2019-06-26T04:29:00.888Z,14.00
2019-06-26T04:31:30.147Z,13.20
2019-06-26T04:33:59.106Z,15.48
2019-06-26T04:36:28.080Z,13.62
2019-06-26T04:38:56.773Z,14.03
2019-06-26T04:41:25.462Z,14.28
2019-06-26T04:43:54.460Z,15.78
2019-06-26T04:46:23.198Z,14.50
2019-06-26T04:48:51.898Z,15.63
2019-06-26T04:51:20.570Z,15.72
2019-06-26T04:53:49.256Z,15.18
2019-06-26T04:56:18.234Z,14.68
2019-06-26T04:58:46.921Z,16.87
2019-06-26T05:01:15.915Z,14.93
2019-06-26T05:03:44.846Z,15.83
2019-06-26T05:06:13.892Z,15.70
2019-06-26T05:08:42.844Z,16.55
2019-06-26T05:11:12.812Z,17.00
2019-06-26T05:13:41.793Z,17.48
2019-06-26T05:16:15.831Z,15.72
2019-06-26T05:18:41.226Z,18.62
2019-06-26T05:21:11.483Z,16.23
2019-06-26T05:23:40.530Z,18.05
2019-06-26T05:26:09.184Z,18.35
2019-06-26T05:28:38.977Z,17.30
2019-06-26T05:31:07.684Z,17.48
2019-06-26T05:33:36.386Z,19.60
2019-06-26T05:36:05.467Z,18.73
2019-06-26T05:38:34.179Z,17.00
2019-06-26T05:41:03.171Z,18.10
2019-06-26T05:43:31.933Z,18.25
2019-06-26T05:46:00.859Z,17.17
2019-06-26T05:48:29.558Z,21.35
2019-06-26T05:50:58.245Z,21.75
2019-06-26T05:53:27.002Z,18.37
2019-06-26T05:55:55.937Z,19.15
2019-06-26T05:58:24.961Z,19.40
2019-06-26T06:00:53.648Z,19.15
2019-06-26T06:03:25.158Z,20.77
2019-06-26T06:05:53.893Z,19.98
2019-06-26T06:08:22.845Z,20.92
2019-06-26T06:10:55.881Z,20.20
2019-06-26T06:13:24.732Z,19.00
2019-06-26T06:15:53.450Z,23.95
2019-06-26T06:18:22.142Z,20.32
2019-06-26T06:20:51.105Z,19.98
2019-06-26T06:23:19.785Z,18.35
2019-06-26T06:25:48.899Z,18.73
2019-06-26T06:28:19.711Z,18.12
2019-06-26T06:30:48.644Z,19.48
2019-06-26T06:33:17.331Z,17.98
2019-06-26T06:35:46.015Z,19.65
2019-06-26T06:38:14.726Z,19.30
2019-06-26T06:40:43.729Z,19.85
2019-06-26T06:43:12.813Z,20.15
2019-06-26T06:45:41.635Z,20.88
2019-06-26T06:48:10.657Z,21.37
2019-06-26T06:50:39.337Z,19.37
2019-06-26T06:53:08.037Z,19.15
2019-06-26T06:55:36.743Z,20.82
2019-06-26T06:58:10.024Z,20.08
2019-06-26T07:00:39.012Z,21.87
2019-06-26T07:03:08.010Z,21.20
2019-06-26T07:05:36.970Z,21.23
2019-06-26T07:08:05.624Z,20.10
2019-06-26T07:10:34.309Z,21.68
2019-06-26T07:13:02.977Z,19.75
2019-06-26T07:15:36.216Z,20.43
2019-06-26T07:18:04.967Z,20.23
2019-06-26T07:20:33.718Z,18.92
2019-06-26T07:23:02.381Z,20.88
2019-06-26T07:25:31.374Z,17.30
2019-06-26T07:28:02.009Z,17.87
2019-06-26T07:30:31.205Z,20.80
2019-06-26T07:32:59.891Z,17.92
2019-06-26T07:35:28.617Z,20.88
2019-06-26T07:38:00.057Z,21.00
2019-06-26T07:40:28.308Z,20.68
2019-06-26T07:42:56.970Z,19.00
2019-06-26T07:45:25.721Z,17.48
2019-06-26T07:47:54.974Z,16.87
2019-06-26T07:50:23.722Z,16.05
2019-06-26T07:52:52.889Z,16.60
2019-06-26T07:55:21.542Z,16.95
2019-06-26T07:57:50.537Z,17.00
2019-06-26T08:00:20.469Z,18.92
2019-06-26T08:02:49.268Z,19.73
2019-06-26T08:05:18.458Z,20.75
2019-06-26T08:07:47.138Z,21.35
2019-06-26T08:10:16.305Z,19.82
2019-06-26T08:12:45.307Z,20.37
2019-06-26T08:15:15.526Z,24.77
2019-06-26T08:17:59.328Z,25.82
2019-06-26T08:20:15.878Z,22.00
2019-06-26T08:22:44.624Z,21.50
2019-06-26T08:25:13.854Z,23.70
2019-06-26T08:27:42.844Z,21.02
2019-06-26T08:30:12.468Z,22.70
2019-06-26T08:32:41.163Z,22.62
2019-06-26T08:35:10.953Z,20.43
2019-06-26T08:37:39.617Z,28.60
2019-06-26T08:40:08.682Z,22.20
2019-06-26T08:42:37.364Z,19.25
2019-06-26T08:45:06.625Z,19.90
2019-06-26T08:47:35.732Z,22.07
2019-06-26T08:50:04.765Z,22.20
2019-06-26T08:52:33.417Z,23.77
2019-06-26T08:55:02.380Z,21.17
2019-06-26T08:57:31.365Z,22.17
2019-06-26T09:00:00.319Z,21.87
2019-06-26T09:02:29.066Z,24.37
2019-06-26T09:04:58.045Z,22.40
2019-06-26T09:07:27.093Z,24.02
2019-06-26T09:09:55.808Z,22.90
2019-06-26T09:12:24.879Z,27.10
2019-06-26T09:14:53.609Z,22.10
2019-06-26T09:17:22.599Z,21.15
2019-06-26T09:19:51.700Z,22.37
2019-06-26T09:22:20.361Z,20.62
2019-06-26T09:24:49.623Z,21.75
2019-06-26T09:27:18.386Z,21.77
2019-06-26T09:29:47.294Z,20.48
2019-06-26T09:32:16.562Z,21.68
2019-06-26T09:34:45.261Z,21.25
2019-06-26T09:37:16.045Z,18.87
2019-06-26T09:39:45.068Z,19.62
2019-06-26T09:42:14.163Z,18.92
2019-06-26T09:44:43.459Z,18.55
2019-06-26T09:47:15.592Z,27.07
2019-06-26T09:49:43.503Z,18.55
2019-06-26T09:52:12.592Z,19.20
2019-06-26T09:54:41.583Z,19.07
2019-06-26T09:57:10.329Z,19.92
2019-06-26T09:59:41.502Z,19.62
2019-06-26T10:02:10.515Z,23.12
2019-06-26T10:04:39.250Z,19.62
2019-06-26T10:07:08.018Z,17.05
2019-06-26T10:09:37.326Z,17.27
2019-06-26T10:12:06.033Z,17.40
2019-06-26T10:14:47.419Z,16.82
2019-06-26T10:17:06.530Z,19.00
2019-06-26T10:19:35.197Z,19.85
2019-06-26T10:22:03.961Z,15.72
2019-06-26T10:24:32.623Z,15.08
2019-06-26T10:27:01.683Z,14.73
2019-06-26T10:29:30.644Z,14.23
2019-06-26T10:31:59.323Z,16.23
2019-06-26T10:34:28.340Z,16.00
2019-06-26T10:36:57.033Z,16.60
2019-06-26T10:39:25.732Z,14.28
2019-06-26T10:41:55.196Z,16.87
2019-06-26T10:44:24.091Z,14.83
2019-06-26T10:46:53.065Z,15.05
2019-06-26T10:49:26.983Z,14.50
2019-06-26T10:51:52.515Z,16.13
2019-06-26T10:54:21.796Z,12.68
2019-06-26T10:56:50.802Z,14.50
2019-06-26T10:59:19.799Z,15.78
2019-06-26T11:01:48.515Z,14.23
2019-06-26T11:04:17.497Z,12.75
2019-06-26T11:06:46.205Z,13.13
2019-06-26T11:09:14.864Z,11.85
2019-06-26T11:11:43.572Z,12.37
2019-06-26T11:14:12.215Z,11.65
2019-06-26T11:16:41.213Z,17.67
2019-06-26T11:19:10.136Z,10.45
2019-06-26T11:21:38.811Z,11.05
2019-06-26T11:24:07.773Z,15.13
2019-06-26T11:26:36.761Z,11.90
2019-06-26T11:29:05.507Z,8.20
2019-06-26T11:31:34.628Z,16.15
2019-06-26T11:34:03.588Z,8.58
2019-06-26T11:36:32.258Z,11.48
2019-06-26T11:39:02.112Z,12.33
2019-06-26T11:41:30.775Z,10.43
2019-06-26T11:43:59.473Z,9.55
2019-06-26T11:46:29.503Z,10.85
2019-06-26T11:48:58.181Z,10.25
2019-06-26T11:51:26.851Z,12.15
2019-06-26T11:53:58.886Z,10.18
2019-06-26T11:56:26.519Z,9.10
2019-06-26T11:58:55.516Z,9.45
2019-06-26T12:01:24.302Z,9.13
2019-06-26T12:03:52.968Z,9.03
2019-06-26T12:06:21.732Z,9.70
2019-06-26T12:08:50.403Z,14.10
2019-06-26T12:11:23.418Z,12.90
2019-06-26T12:13:52.407Z,9.23
2019-06-26T12:16:21.073Z,8.50
2019-06-26T12:18:51.026Z,9.53
2019-06-26T12:21:20.001Z,10.68
2019-06-26T12:23:48.720Z,10.23
2019-06-26T12:26:20.114Z,8.95
2019-06-26T12:28:51.410Z,8.38
2019-06-26T12:31:22.449Z,7.72
2019-06-26T12:33:51.113Z,8.20
2019-06-26T12:36:20.115Z,8.48
2019-06-26T12:38:49.124Z,7.78
2019-06-26T12:41:17.885Z,10.28
2019-06-26T12:43:46.806Z,8.60
2019-06-26T12:46:18.121Z,9.65
2019-06-26T12:48:45.941Z,10.45
2019-06-26T12:51:14.650Z,11.57
2019-06-26T12:53:43.638Z,8.75
2019-06-26T12:56:12.310Z,8.98
2019-06-26T12:58:41.002Z,8.85
2019-06-26T13:01:09.952Z,7.70
2019-06-26T13:03:38.958Z,8.98
2019-06-26T13:06:07.635Z,8.58
2019-06-26T13:08:38.862Z,9.10
2019-06-26T13:11:07.777Z,8.48
2019-06-26T13:13:36.759Z,9.08
2019-06-26T13:16:05.482Z,8.50
2019-06-26T13:18:34.438Z,7.80
2019-06-26T13:21:05.242Z,9.88
2019-06-26T13:23:33.545Z,9.98
2019-06-26T13:26:02.281Z,9.90
2019-06-26T13:28:31.231Z,11.12
2019-06-26T13:31:00.552Z,11.12
2019-06-26T13:33:29.582Z,12.30
2019-06-26T13:35:58.209Z,11.33
2019-06-26T13:38:27.370Z,12.85
2019-06-26T13:40:56.042Z,12.95
2019-06-26T13:43:25.059Z,14.33
2019-06-26T13:45:53.721Z,13.53
2019-06-26T13:48:22.478Z,12.37
2019-06-26T13:50:51.216Z,13.80
2019-06-26T13:53:19.964Z,13.43
2019-06-26T13:55:48.913Z,15.48
2019-06-26T13:58:17.908Z,14.25
2019-06-26T14:00:46.821Z,14.33
2019-06-26T14:03:15.866Z,13.78
2019-06-26T14:05:44.606Z,14.47
2019-06-26T14:08:13.606Z,13.72
2019-06-26T14:10:42.294Z,12.85
2019-06-26T14:13:11.258Z,13.55
2019-06-26T14:15:39.948Z,16.02
2019-06-26T14:18:08.831Z,12.68
2019-06-26T14:20:37.808Z,13.72
2019-06-26T14:23:06.487Z,15.28
2019-06-26T14:25:35.237Z,15.60
2019-06-26T14:28:06.382Z,16.48
2019-06-26T14:33:02.864Z,15.58
2019-06-26T14:35:31.822Z,18.90
2019-06-26T14:38:00.973Z,18.42
2019-06-26T14:40:29.727Z,19.65
2019-06-26T14:43:00.569Z,19.52
2019-06-26T14:45:33.774Z,20.20
2019-06-26T14:48:05.293Z,19.85
2019-06-26T14:50:34.233Z,19.73
2019-06-26T14:53:03.031Z,17.73
2019-06-26T14:55:33.830Z,19.30
2019-06-26T14:58:02.497Z,17.70
2019-06-26T15:00:31.212Z,18.48
2019-06-26T15:02:59.970Z,18.15
2019-06-26T15:05:32.388Z,16.97
2019-06-26T15:08:01.101Z,15.68
2019-06-26T15:10:31.997Z,15.88
2019-06-26T15:13:00.765Z,16.67
2019-06-26T15:15:31.601Z,15.40
2019-06-26T15:18:02.151Z,14.18
2019-06-26T15:20:30.935Z,13.08
2019-06-26T15:23:00.246Z,12.50
2019-06-26T15:25:28.996Z,11.70
2019-06-26T15:27:58.044Z,15.03
2019-06-26T15:30:29.852Z,11.90
2019-06-26T15:32:58.926Z,12.47
2019-06-26T15:35:27.978Z,12.80
2019-06-26T15:37:56.672Z,13.32
2019-06-26T15:40:25.360Z,10.78
2019-06-26T15:42:54.219Z,10.90
2019-06-26T15:45:24.522Z,15.88
2019-06-26T15:47:53.222Z,10.30
2019-06-26T15:50:21.988Z,9.55
2019-06-26T15:52:51.295Z,11.20
2019-06-26T15:55:21.008Z,11.95
2019-06-26T15:57:50.444Z,9.75
2019-06-26T16:00:19.493Z,9.80
2019-06-26T16:02:48.243Z,11.97
2019-06-26T16:05:17.418Z,10.50
2019-06-26T16:07:46.097Z,13.53
2019-06-26T16:10:15.779Z,10.90
2019-06-26T16:12:44.788Z,12.20
2019-06-26T16:15:13.852Z,11.90
2019-06-26T16:17:48.404Z,11.53
2019-06-26T16:20:17.336Z,12.40
2019-06-26T16:22:46.093Z,12.40
2019-06-26T16:25:15.778Z,14.85
2019-06-26T16:27:44.795Z,18.35
2019-06-26T16:30:13.815Z,10.63
2019-06-26T16:32:42.497Z,16.40
2019-06-26T16:35:12.517Z,12.68
2019-06-26T16:37:41.197Z,14.47
2019-06-26T16:40:10.030Z,13.38
2019-06-26T16:42:38.738Z,11.88
2019-06-26T16:45:08.215Z,13.28
2019-06-26T16:47:37.327Z,12.05
2019-06-26T16:50:07.332Z,11.70
2019-06-26T16:52:48.718Z,15.72
2019-06-26T16:55:07.221Z,13.40
2019-06-26T16:57:35.900Z,16.35
2019-06-26T17:00:09.946Z,12.60
2019-06-26T17:02:37.093Z,15.40
2019-06-26T17:05:06.301Z,15.93
2019-06-26T17:07:35.048Z,13.28
2019-06-26T17:10:04.187Z,14.98
2019-06-26T17:12:33.217Z,10.70
2019-06-26T17:15:04.218Z,12.30
2019-06-26T17:17:32.744Z,10.67
2019-06-26T17:20:01.698Z,12.60
2019-06-26T17:22:30.704Z,13.03
2019-06-26T17:24:59.412Z,10.85
2019-06-26T17:27:28.349Z,14.00
2019-06-26T17:29:57.447Z,12.85
2019-06-26T17:32:26.126Z,10.70
2019-06-26T17:34:54.830Z,11.65
2019-06-26T17:37:23.598Z,13.53
2019-06-26T17:39:52.575Z,12.25
2019-06-26T17:42:21.322Z,13.03
2019-06-26T17:44:50.295Z,14.75
2019-06-26T17:47:19.281Z,11.78
2019-06-26T17:49:48.169Z,16.10
2019-06-26T17:52:17.595Z,13.00
2019-06-26T17:54:46.857Z,15.68
2019-06-26T17:57:15.543Z,12.33
2019-06-26T17:59:44.743Z,11.83
2019-06-26T18:02:13.478Z,12.70
2019-06-26T18:04:42.155Z,10.98
2019-06-26T18:07:10.864Z,11.48
2019-06-26T18:09:40.158Z,9.75
2019-06-26T18:12:10.231Z,9.85
2019-06-26T18:14:42.943Z,13.95
2019-06-26T18:17:21.753Z,11.70
2019-06-26T18:19:40.142Z,8.60
2019-06-26T18:22:09.069Z,9.15
2019-06-26T18:24:37.736Z,8.30
2019-06-26T18:27:06.745Z,10.00
2019-06-26T18:29:35.479Z,8.38
2019-06-26T18:32:04.241Z,10.65
2019-06-26T18:34:33.522Z,13.13
2019-06-26T18:37:02.457Z,16.30
2019-06-26T18:39:31.396Z,7.62
2019-06-26T18:42:00.160Z,7.95
2019-06-26T18:44:28.965Z,10.03
2019-06-26T18:46:58.813Z,8.73
2019-06-26T18:49:27.464Z,7.92
2019-06-26T18:51:56.162Z,10.30
2019-06-26T18:54:24.832Z,8.80
2019-06-26T18:56:53.758Z,9.95
2019-06-26T18:59:22.425Z,9.30
2019-06-26T19:01:51.112Z,6.70
2019-06-26T19:04:20.031Z,9.15
2019-06-26T19:06:48.721Z,8.55
2019-06-26T19:09:20.846Z,9.10
2019-06-26T19:11:49.836Z,6.83
2019-06-26T19:14:18.506Z,11.03
2019-06-26T19:16:47.221Z,8.40
2019-06-26T19:19:16.512Z,6.97
2019-06-26T19:21:45.223Z,5.80
2019-06-26T19:24:14.222Z,7.62
2019-06-26T19:26:42.925Z,6.20
2019-06-26T19:29:13.367Z,6.15
2019-06-26T19:31:42.057Z,5.50
2019-06-26T19:34:10.909Z,6.12
2019-06-26T19:36:49.567Z,6.95
2019-06-26T19:39:10.516Z,8.33
2019-06-26T19:41:39.143Z,7.80
2019-06-26T19:44:09.154Z,7.67
2019-06-26T19:46:41.697Z,7.35
2019-06-26T19:49:09.031Z,8.75
2019-06-26T19:51:37.746Z,10.78
2019-06-26T19:54:06.943Z,8.78
2019-06-26T19:56:35.910Z,12.30
2019-06-26T19:59:05.579Z,9.73
2019-06-26T20:01:35.033Z,11.78
2019-06-26T20:04:04.017Z,10.98
2019-06-26T20:06:33.008Z,11.68
2019-06-26T20:09:01.757Z,11.03
2019-06-26T20:11:30.811Z,10.78
2019-06-26T20:13:59.547Z,13.75
2019-06-26T20:16:28.470Z,17.87
2019-06-26T20:18:57.547Z,11.68
2019-06-26T20:21:26.255Z,12.82
2019-06-26T20:23:54.940Z,10.03
2019-06-26T20:26:23.607Z,15.20
2019-06-26T20:28:52.305Z,17.80
2019-06-26T20:31:20.977Z,12.58
2019-06-26T20:33:50.031Z,16.37
2019-06-26T20:36:19.059Z,16.35
2019-06-26T20:38:47.777Z,15.48
2019-06-26T20:41:19.946Z,17.52
2019-06-26T20:43:49.335Z,14.33
2019-06-26T20:46:18.018Z,15.30
2019-06-26T20:48:46.716Z,14.68
2019-06-26T20:51:15.401Z,13.93
2019-06-26T20:53:44.428Z,13.43
2019-06-26T20:56:13.100Z,15.10
2019-06-26T20:58:41.810Z,14.63
2019-06-26T21:01:11.054Z,14.15
2019-06-26T21:03:39.737Z,14.78
2019-06-26T21:06:08.743Z,17.32
2019-06-26T21:08:37.504Z,16.73
2019-06-26T21:11:06.172Z,18.95
2019-06-26T21:13:34.927Z,16.48
2019-06-26T21:16:06.049Z,16.45
2019-06-26T21:18:34.777Z,14.50
2019-06-26T21:21:03.736Z,21.90
2019-06-26T21:23:32.662Z,15.50
2019-06-26T21:26:01.409Z,13.58
2019-06-26T21:28:30.922Z,14.43
2019-06-26T21:30:59.610Z,15.03
2019-06-26T21:33:28.684Z,14.87
2019-06-26T21:35:57.391Z,16.57
2019-06-26T21:38:26.354Z,14.93
2019-06-26T21:40:55.050Z,13.72
2019-06-26T21:43:24.155Z,13.38
2019-06-26T21:45:52.828Z,15.63
2019-06-26T21:48:21.636Z,14.50
2019-06-26T21:50:50.640Z,16.85
2019-06-26T21:53:19.314Z,14.13
2019-06-26T21:55:48.242Z,13.13
2019-06-26T21:58:17.037Z,13.30
2019-06-26T22:00:46.608Z,12.65
2019-06-26T22:03:16.527Z,15.13
2019-06-26T22:05:45.386Z,11.85
2019-06-26T22:08:14.099Z,15.45
2019-06-26T22:10:42.935Z,13.03
2019-06-26T22:13:11.706Z,11.95
2019-06-26T22:15:40.831Z,13.60
2019-06-26T22:18:09.581Z,9.70
2019-06-26T22:20:38.297Z,12.00
2019-06-26T22:23:07.104Z,9.83
2019-06-26T22:25:49.901Z,8.70
2019-06-26T22:28:06.568Z,13.55
2019-06-26T22:30:37.422Z,11.15
2019-06-26T22:33:07.391Z,10.33
2019-06-26T22:35:36.119Z,13.88
2019-06-26T22:38:04.887Z,8.45
2019-06-26T22:40:33.578Z,12.80
2019-06-26T22:43:04.246Z,8.60
2019-06-26T22:45:33.227Z,8.83
2019-06-26T22:48:02.034Z,9.58
2019-06-26T22:50:30.940Z,11.70
2019-06-26T22:52:59.973Z,8.45
2019-06-26T22:55:28.678Z,12.15
2019-06-26T22:57:57.352Z,11.05
2019-06-26T23:00:26.200Z,9.53
2019-06-26T23:02:54.934Z,11.50
2019-06-26T23:05:23.930Z,11.22
2019-06-26T23:07:52.604Z,9.70
2019-06-26T23:10:21.327Z,11.50
2019-06-26T23:12:50.357Z,10.58
2019-06-26T23:15:19.213Z,13.32
2019-06-26T23:17:48.274Z,11.60
2019-06-26T23:20:19.847Z,11.33
2019-06-26T23:22:48.861Z,11.22
2019-06-26T23:25:17.776Z,12.68
2019-06-26T23:27:46.450Z,10.60
2019-06-26T23:30:18.879Z,13.13
2019-06-26T23:32:48.212Z,15.00
2019-06-26T23:35:17.324Z,14.35
2019-06-26T23:37:46.008Z,14.05
2019-06-26T23:40:14.829Z,16.50
2019-06-26T23:42:43.748Z,16.40
2019-06-26T23:45:12.793Z,17.75
2019-06-26T23:47:41.974Z,16.17
2019-06-26T23:50:13.090Z,15.90
2019-06-26T23:52:41.776Z,20.55
2019-06-26T23:55:10.868Z,17.12
2019-06-26T23:57:54.650Z,18.65
